sensor_id;sensor_type;location;lat;lon;timestamp;temperature;humidity
68943;DHT22;60852;52.190;4.422;2023-05-25T00:01:33;13.01;78.35
68943;DHT22;60852;52.190;4.422;2023-05-25T00:04:00;12.96;78.59
68943;DHT22;60852;52.190;4.422;2023-05-25T00:06:30;12.94;78.71
68943;DHT22;60852;52.190;4.422;2023-05-25T00:08:56;12.90;78.98
68943;DHT22;60852;52.190;4.422;2023-05-25T00:11:25;12.83;79.29
68943;DHT22;60852;52.190;4.422;2023-05-25T00:13:51;12.79;79.38
68943;DHT22;60852;52.190;4.422;2023-05-25T00:16:17;12.86;79.23
68943;DHT22;60852;52.190;4.422;2023-05-25T00:18:42;12.81;79.31
68943;DHT22;60852;52.190;4.422;2023-05-25T00:21:08;12.81;79.22
68943;DHT22;60852;52.190;4.422;2023-05-25T00:23:35;12.84;79.25
68943;DHT22;60852;52.190;4.422;2023-05-25T00:26:02;12.79;79.56
68943;DHT22;60852;52.190;4.422;2023-05-25T00:28:28;12.73;79.67
68943;DHT22;60852;52.190;4.422;2023-05-25T00:30:53;12.67;79.87
68943;DHT22;60852;52.190;4.422;2023-05-25T00:33:20;12.67;79.88
68943;DHT22;60852;52.190;4.422;2023-05-25T00:35:46;12.70;80.01
68943;DHT22;60852;52.190;4.422;2023-05-25T00:38:18;12.63;80.06
68943;DHT22;60852;52.190;4.422;2023-05-25T00:40:45;12.61;80.02
68943;DHT22;60852;52.190;4.422;2023-05-25T00:43:11;12.64;79.96
68943;DHT22;60852;52.190;4.422;2023-05-25T00:45:37;12.63;79.76
68943;DHT22;60852;52.190;4.422;2023-05-25T00:48:03;12.66;79.75
68943;DHT22;60852;52.190;4.422;2023-05-25T00:50:37;12.61;79.84
68943;DHT22;60852;52.190;4.422;2023-05-25T00:53:06;12.61;79.86
68943;DHT22;60852;52.190;4.422;2023-05-25T00:55:38;12.53;80.03
68943;DHT22;60852;52.190;4.422;2023-05-25T00:58:07;12.46;80.31
68943;DHT22;60852;52.190;4.422;2023-05-25T01:00:33;12.45;80.36
68943;DHT22;60852;52.190;4.422;2023-05-25T01:03:11;12.43;80.45
68943;DHT22;60852;52.190;4.422;2023-05-25T01:05:45;12.42;80.32
68943;DHT22;60852;52.190;4.422;2023-05-25T01:08:13;12.38;80.48
68943;DHT22;60852;52.190;4.422;2023-05-25T01:10:41;12.36;80.61
68943;DHT22;60852;52.190;4.422;2023-05-25T01:13:08;12.30;80.75
68943;DHT22;60852;52.190;4.422;2023-05-25T01:15:37;12.33;80.74
68943;DHT22;60852;52.190;4.422;2023-05-25T01:18:04;12.26;80.89
68943;DHT22;60852;52.190;4.422;2023-05-25T01:20:29;12.29;81.01
68943;DHT22;60852;52.190;4.422;2023-05-25T01:23:08;12.28;80.88
68943;DHT22;60852;52.190;4.422;2023-05-25T01:25:50;12.21;80.96
68943;DHT22;60852;52.190;4.422;2023-05-25T01:28:26;12.19;81.00
68943;DHT22;60852;52.190;4.422;2023-05-25T01:30:55;12.15;81.06
68943;DHT22;60852;52.190;4.422;2023-05-25T01:33:22;12.18;80.99
68943;DHT22;60852;52.190;4.422;2023-05-25T01:35:48;12.09;81.10
68943;DHT22;60852;52.190;4.422;2023-05-25T01:38:16;12.14;81.09
68943;DHT22;60852;52.190;4.422;2023-05-25T01:40:42;12.22;80.89
68943;DHT22;60852;52.190;4.422;2023-05-25T01:43:08;12.22;80.82
68943;DHT22;60852;52.190;4.422;2023-05-25T01:45:34;12.18;80.83
68943;DHT22;60852;52.190;4.422;2023-05-25T01:48:19;12.12;81.08
68943;DHT22;60852;52.190;4.422;2023-05-25T01:50:54;12.14;81.11
68943;DHT22;60852;52.190;4.422;2023-05-25T01:53:27;12.11;81.11
68943;DHT22;60852;52.190;4.422;2023-05-25T01:55:58;12.15;81.17
68943;DHT22;60852;52.190;4.422;2023-05-25T01:58:25;12.11;81.15
68943;DHT22;60852;52.190;4.422;2023-05-25T02:00:52;12.11;81.30
68943;DHT22;60852;52.190;4.422;2023-05-25T02:03:18;12.14;81.22
68943;DHT22;60852;52.190;4.422;2023-05-25T02:05:45;12.17;81.12
68943;DHT22;60852;52.190;4.422;2023-05-25T02:08:11;12.18;80.96
68943;DHT22;60852;52.190;4.422;2023-05-25T02:10:37;12.15;81.00
68943;DHT22;60852;52.190;4.422;2023-05-25T02:13:02;12.17;80.90
68943;DHT22;60852;52.190;4.422;2023-05-25T02:15:32;12.18;80.98
68943;DHT22;60852;52.190;4.422;2023-05-25T02:17:57;12.21;80.97
68943;DHT22;60852;52.190;4.422;2023-05-25T02:20:25;12.25;80.72
68943;DHT22;60852;52.190;4.422;2023-05-25T02:22:51;12.19;80.53
68943;DHT22;60852;52.190;4.422;2023-05-25T02:25:16;12.15;80.66
68943;DHT22;60852;52.190;4.422;2023-05-25T02:27:42;12.14;80.85
68943;DHT22;60852;52.190;4.422;2023-05-25T02:30:08;12.06;81.13
68943;DHT22;60852;52.190;4.422;2023-05-25T02:32:33;12.02;81.34
68943;DHT22;60852;52.190;4.422;2023-05-25T02:35:00;12.01;81.33
68943;DHT22;60852;52.190;4.422;2023-05-25T02:37:25;11.98;81.45
68943;DHT22;60852;52.190;4.422;2023-05-25T02:39:51;11.95;81.57
68943;DHT22;60852;52.190;4.422;2023-05-25T02:42:16;11.90;81.59
68943;DHT22;60852;52.190;4.422;2023-05-25T02:44:41;11.88;81.80
68943;DHT22;60852;52.190;4.422;2023-05-25T02:47:15;11.85;81.92
68943;DHT22;60852;52.190;4.422;2023-05-25T02:49:43;11.85;82.01
68943;DHT22;60852;52.190;4.422;2023-05-25T02:52:08;11.85;81.96
68943;DHT22;60852;52.190;4.422;2023-05-25T02:54:34;11.88;81.98
68943;DHT22;60852;52.190;4.422;2023-05-25T02:57:01;11.92;81.94
68943;DHT22;60852;52.190;4.422;2023-05-25T02:59:28;12.01;81.73
68943;DHT22;60852;52.190;4.422;2023-05-25T03:01:53;12.01;81.38
68943;DHT22;60852;52.190;4.422;2023-05-25T03:04:19;12.02;81.28
68943;DHT22;60852;52.190;4.422;2023-05-25T03:06:44;12.01;81.31
68943;DHT22;60852;52.190;4.422;2023-05-25T03:09:10;11.99;81.15
68943;DHT22;60852;52.190;4.422;2023-05-25T03:11:36;11.98;81.12
68943;DHT22;60852;52.190;4.422;2023-05-25T03:14:02;11.94;81.24
68943;DHT22;60852;52.190;4.422;2023-05-25T03:16:27;11.81;81.65
68943;DHT22;60852;52.190;4.422;2023-05-25T03:18:52;11.80;81.93
68943;DHT22;60852;52.190;4.422;2023-05-25T03:21:18;11.73;81.93
68943;DHT22;60852;52.190;4.422;2023-05-25T03:23:44;11.67;82.17
68943;DHT22;60852;52.190;4.422;2023-05-25T03:26:09;11.73;82.22
68943;DHT22;60852;52.190;4.422;2023-05-25T03:28:35;11.73;82.19
68943;DHT22;60852;52.190;4.422;2023-05-25T03:31:00;11.73;82.12
68943;DHT22;60852;52.190;4.422;2023-05-25T03:33:25;11.77;81.98
68943;DHT22;60852;52.190;4.422;2023-05-25T03:35:51;11.82;81.98
68943;DHT22;60852;52.190;4.422;2023-05-25T03:38:16;11.84;81.74
68943;DHT22;60852;52.190;4.422;2023-05-25T03:40:42;11.80;81.77
68943;DHT22;60852;52.190;4.422;2023-05-25T03:43:07;11.78;81.85
68943;DHT22;60852;52.190;4.422;2023-05-25T03:45:33;11.84;81.90
68943;DHT22;60852;52.190;4.422;2023-05-25T03:47:58;11.92;81.72
68943;DHT22;60852;52.190;4.422;2023-05-25T03:50:24;11.98;81.12
68943;DHT22;60852;52.190;4.422;2023-05-25T03:52:49;12.04;80.87
68943;DHT22;60852;52.190;4.422;2023-05-25T03:55:15;12.06;80.87
68943;DHT22;60852;52.190;4.422;2023-05-25T03:57:40;12.14;80.40
68943;DHT22;60852;52.190;4.422;2023-05-25T04:00:07;12.18;80.11
68943;DHT22;60852;52.190;4.422;2023-05-25T04:02:34;12.18;80.09
68943;DHT22;60852;52.190;4.422;2023-05-25T04:05:00;12.21;80.23
68943;DHT22;60852;52.190;4.422;2023-05-25T04:07:26;12.28;80.08
68943;DHT22;60852;52.190;4.422;2023-05-25T04:09:54;12.30;80.03
68943;DHT22;60852;52.190;4.422;2023-05-25T04:12:22;12.36;79.83
68943;DHT22;60852;52.190;4.422;2023-05-25T04:14:47;12.38;79.66
68943;DHT22;60852;52.190;4.422;2023-05-25T04:17:13;12.39;79.46
68943;DHT22;60852;52.190;4.422;2023-05-25T04:19:38;12.75;78.91
68943;DHT22;60852;52.190;4.422;2023-05-25T04:22:04;13.21;77.80
68943;DHT22;60852;52.190;4.422;2023-05-25T04:24:29;13.37;77.51
68943;DHT22;60852;52.190;4.422;2023-05-25T04:26:56;13.32;77.48
68943;DHT22;60852;52.190;4.422;2023-05-25T04:29:22;13.27;77.34
68943;DHT22;60852;52.190;4.422;2023-05-25T04:31:47;13.17;77.28
68943;DHT22;60852;52.190;4.422;2023-05-25T04:34:13;13.04;77.46
68943;DHT22;60852;52.190;4.422;2023-05-25T04:36:39;12.91;77.91
68943;DHT22;60852;52.190;4.422;2023-05-25T04:39:07;12.83;78.63
68943;DHT22;60852;52.190;4.422;2023-05-25T04:41:32;12.76;79.01
68943;DHT22;60852;52.190;4.422;2023-05-25T04:43:58;12.73;79.05
68943;DHT22;60852;52.190;4.422;2023-05-25T04:46:23;12.72;79.46
68943;DHT22;60852;52.190;4.422;2023-05-25T04:48:49;12.69;79.76
68943;DHT22;60852;52.190;4.422;2023-05-25T04:51:15;12.66;80.06
68943;DHT22;60852;52.190;4.422;2023-05-25T04:53:40;12.63;80.22
68943;DHT22;60852;52.190;4.422;2023-05-25T04:56:06;12.69;80.22
68943;DHT22;60852;52.190;4.422;2023-05-25T04:58:32;12.76;79.74
68943;DHT22;60852;52.190;4.422;2023-05-25T05:00:58;12.90;79.85
68943;DHT22;60852;52.190;4.422;2023-05-25T05:03:23;13.31;78.50
68943;DHT22;60852;52.190;4.422;2023-05-25T05:05:49;13.85;76.46
68943;DHT22;60852;52.190;4.422;2023-05-25T05:08:15;14.49;74.58
68943;DHT22;60852;52.190;4.422;2023-05-25T05:10:40;15.29;71.97
68943;DHT22;60852;52.190;4.422;2023-05-25T05:13:06;15.64;70.35
68943;DHT22;60852;52.190;4.422;2023-05-25T05:15:31;16.02;68.40
68943;DHT22;60852;52.190;4.422;2023-05-25T05:17:57;15.73;68.94
68943;DHT22;60852;52.190;4.422;2023-05-25T05:20:23;15.33;70.38
68943;DHT22;60852;52.190;4.422;2023-05-25T05:22:49;15.10;71.35
68943;DHT22;60852;52.190;4.422;2023-05-25T05:25:15;15.50;70.65
68943;DHT22;60852;52.190;4.422;2023-05-25T05:27:40;16.08;68.42
68943;DHT22;60852;52.190;4.422;2023-05-25T05:30:06;16.30;67.46
68943;DHT22;60852;52.190;4.422;2023-05-25T05:32:32;16.26;67.55
68943;DHT22;60852;52.190;4.422;2023-05-25T05:34:59;16.36;66.92
68943;DHT22;60852;52.190;4.422;2023-05-25T05:37:24;16.43;67.47
68943;DHT22;60852;52.190;4.422;2023-05-25T05:39:50;16.93;66.54
68943;DHT22;60852;52.190;4.422;2023-05-25T05:42:17;17.21;65.04
68943;DHT22;60852;52.190;4.422;2023-05-25T05:44:43;17.20;65.44
68943;DHT22;60852;52.190;4.422;2023-05-25T05:47:08;17.30;64.99
68943;DHT22;60852;52.190;4.422;2023-05-25T05:49:34;17.31;64.66
68943;DHT22;60852;52.190;4.422;2023-05-25T05:52:02;17.27;64.58
68943;DHT22;60852;52.190;4.422;2023-05-25T05:54:27;17.63;64.44
68943;DHT22;60852;52.190;4.422;2023-05-25T05:56:53;17.99;62.58
68943;DHT22;60852;52.190;4.422;2023-05-25T05:59:20;17.62;63.43
68943;DHT22;60852;52.190;4.422;2023-05-25T06:01:46;17.61;63.51
68943;DHT22;60852;52.190;4.422;2023-05-25T06:04:11;17.22;64.24
68943;DHT22;60852;52.190;4.422;2023-05-25T06:06:37;16.36;66.72
68943;DHT22;60852;52.190;4.422;2023-05-25T06:09:04;16.79;66.40
68943;DHT22;60852;52.190;4.422;2023-05-25T06:11:35;17.27;63.95
68943;DHT22;60852;52.190;4.422;2023-05-25T06:14:01;17.32;63.00
68943;DHT22;60852;52.190;4.422;2023-05-25T06:16:26;17.11;63.84
68943;DHT22;60852;52.190;4.422;2023-05-25T06:18:51;16.55;65.71
68943;DHT22;60852;52.190;4.422;2023-05-25T06:21:17;16.19;67.87
68943;DHT22;60852;52.190;4.422;2023-05-25T06:23:42;15.83;68.35
68943;DHT22;60852;52.190;4.422;2023-05-25T06:26:08;15.58;69.33
68943;DHT22;60852;52.190;4.422;2023-05-25T06:28:33;15.47;69.80
68943;DHT22;60852;52.190;4.422;2023-05-25T06:30:59;15.32;70.22
68943;DHT22;60852;52.190;4.422;2023-05-25T06:33:24;15.15;69.88
68943;DHT22;60852;52.190;4.422;2023-05-25T06:35:50;15.07;71.25
68943;DHT22;60852;52.190;4.422;2023-05-25T06:38:17;14.91;71.45
68943;DHT22;60852;52.190;4.422;2023-05-25T06:40:42;14.92;71.01
68943;DHT22;60852;52.190;4.422;2023-05-25T06:43:08;14.92;71.13
68943;DHT22;60852;52.190;4.422;2023-05-25T06:45:33;14.99;71.16
68943;DHT22;60852;52.190;4.422;2023-05-25T06:47:58;15.07;71.19
68943;DHT22;60852;52.190;4.422;2023-05-25T06:50:24;14.99;70.97
68943;DHT22;60852;52.190;4.422;2023-05-25T06:52:50;15.06;70.24
68943;DHT22;60852;52.190;4.422;2023-05-25T06:55:15;14.98;69.79
68943;DHT22;60852;52.190;4.422;2023-05-25T06:57:41;14.96;69.99
68943;DHT22;60852;52.190;4.422;2023-05-25T07:00:08;15.05;68.32
68943;DHT22;60852;52.190;4.422;2023-05-25T07:02:36;14.98;68.85
68943;DHT22;60852;52.190;4.422;2023-05-25T07:05:02;15.03;68.90
68943;DHT22;60852;52.190;4.422;2023-05-25T07:07:30;15.09;68.60
68943;DHT22;60852;52.190;4.422;2023-05-25T07:09:55;15.06;68.88
68943;DHT22;60852;52.190;4.422;2023-05-25T07:12:21;15.05;69.77
68943;DHT22;60852;52.190;4.422;2023-05-25T07:14:47;15.12;69.45
68943;DHT22;60852;52.190;4.422;2023-05-25T07:17:13;15.10;69.79
68943;DHT22;60852;52.190;4.422;2023-05-25T07:19:38;15.00;70.20
68943;DHT22;60852;52.190;4.422;2023-05-25T07:22:06;15.13;69.44
68943;DHT22;60852;52.190;4.422;2023-05-25T07:24:32;15.22;68.87
68943;DHT22;60852;52.190;4.422;2023-05-25T07:26:57;15.25;68.76
68943;DHT22;60852;52.190;4.422;2023-05-25T07:29:23;15.23;68.80
68943;DHT22;60852;52.190;4.422;2023-05-25T07:31:48;15.23;68.80
68943;DHT22;60852;52.190;4.422;2023-05-25T07:34:14;15.27;68.61
68943;DHT22;60852;52.190;4.422;2023-05-25T07:36:39;15.33;68.67
68943;DHT22;60852;52.190;4.422;2023-05-25T07:39:05;15.43;68.68
68943;DHT22;60852;52.190;4.422;2023-05-25T07:41:31;15.71;68.57
68943;DHT22;60852;52.190;4.422;2023-05-25T07:43:57;16.01;67.12
68943;DHT22;60852;52.190;4.422;2023-05-25T07:46:23;15.90;66.22
68943;DHT22;60852;52.190;4.422;2023-05-25T07:48:50;15.68;67.65
68943;DHT22;60852;52.190;4.422;2023-05-25T07:51:16;15.98;67.29
68943;DHT22;60852;52.190;4.422;2023-05-25T07:53:41;16.16;66.07
68943;DHT22;60852;52.190;4.422;2023-05-25T07:56:07;16.19;64.73
68943;DHT22;60852;52.190;4.422;2023-05-25T07:58:32;16.05;64.14
68943;DHT22;60852;52.190;4.422;2023-05-25T08:00:58;15.90;64.15
68943;DHT22;60852;52.190;4.422;2023-05-25T08:03:24;15.78;65.30
68943;DHT22;60852;52.190;4.422;2023-05-25T08:05:49;15.85;65.62
68943;DHT22;60852;52.190;4.422;2023-05-25T08:08:15;16.02;68.90
68943;DHT22;60852;52.190;4.422;2023-05-25T08:10:40;15.74;70.65
68943;DHT22;60852;52.190;4.422;2023-05-25T08:13:06;15.46;72.11
68943;DHT22;60852;52.190;4.422;2023-05-25T08:15:31;15.36;71.81
68943;DHT22;60852;52.190;4.422;2023-05-25T08:17:57;15.30;72.52
68943;DHT22;60852;52.190;4.422;2023-05-25T08:20:22;15.36;72.64
68943;DHT22;60852;52.190;4.422;2023-05-25T08:22:49;15.22;72.90
68943;DHT22;60852;52.190;4.422;2023-05-25T08:25:18;15.23;72.97
68943;DHT22;60852;52.190;4.422;2023-05-25T08:27:43;15.26;72.97
68943;DHT22;60852;52.190;4.422;2023-05-25T08:30:09;15.43;72.74
68943;DHT22;60852;52.190;4.422;2023-05-25T08:32:35;15.58;72.36
68943;DHT22;60852;52.190;4.422;2023-05-25T08:35:01;15.83;71.63
68943;DHT22;60852;52.190;4.422;2023-05-25T08:37:30;15.88;71.55
68943;DHT22;60852;52.190;4.422;2023-05-25T08:39:55;15.61;71.85
68943;DHT22;60852;52.190;4.422;2023-05-25T08:42:21;15.40;72.68
68943;DHT22;60852;52.190;4.422;2023-05-25T08:44:47;15.51;72.99
68943;DHT22;60852;52.190;4.422;2023-05-25T08:47:16;15.63;72.32
68943;DHT22;60852;52.190;4.422;2023-05-25T08:49:43;15.57;72.17
68943;DHT22;60852;52.190;4.422;2023-05-25T08:52:21;15.67;72.25
68943;DHT22;60852;52.190;4.422;2023-05-25T08:54:54;15.91;72.01
68943;DHT22;60852;52.190;4.422;2023-05-25T08:57:30;16.00;70.46
68943;DHT22;60852;52.190;4.422;2023-05-25T09:00:06;16.04;70.25
68943;DHT22;60852;52.190;4.422;2023-05-25T09:02:49;16.08;69.99
68943;DHT22;60852;52.190;4.422;2023-05-25T09:05:19;16.08;71.22
68943;DHT22;60852;52.190;4.422;2023-05-25T09:07:45;16.01;71.25
68943;DHT22;60852;52.190;4.422;2023-05-25T09:10:13;16.01;71.54
68943;DHT22;60852;52.190;4.422;2023-05-25T09:12:40;16.15;70.90
68943;DHT22;60852;52.190;4.422;2023-05-25T09:15:07;16.23;70.57
68943;DHT22;60852;52.190;4.422;2023-05-25T09:17:34;16.35;70.68
68943;DHT22;60852;52.190;4.422;2023-05-25T09:19:59;16.09;71.41
68943;DHT22;60852;52.190;4.422;2023-05-25T09:22:25;16.12;70.95
68943;DHT22;60852;52.190;4.422;2023-05-25T09:24:52;16.19;71.01
68943;DHT22;60852;52.190;4.422;2023-05-25T09:27:21;16.06;71.42
68943;DHT22;60852;52.190;4.422;2023-05-25T09:29:48;16.18;71.43
68943;DHT22;60852;52.190;4.422;2023-05-25T09:32:15;16.15;71.67
68943;DHT22;60852;52.190;4.422;2023-05-25T09:34:42;16.11;71.42
68943;DHT22;60852;52.190;4.422;2023-05-25T09:37:12;16.00;71.43
68943;DHT22;60852;52.190;4.422;2023-05-25T09:39:42;15.98;71.56
68943;DHT22;60852;52.190;4.422;2023-05-25T09:42:08;15.63;72.44
68943;DHT22;60852;52.190;4.422;2023-05-25T09:44:34;15.30;73.52
68943;DHT22;60852;52.190;4.422;2023-05-25T09:47:00;15.15;74.57
68943;DHT22;60852;52.190;4.422;2023-05-25T09:49:26;14.99;75.24
68943;DHT22;60852;52.190;4.422;2023-05-25T09:51:52;15.03;75.36
68943;DHT22;60852;52.190;4.422;2023-05-25T09:54:17;15.12;75.09
68943;DHT22;60852;52.190;4.422;2023-05-25T09:56:43;15.27;74.91
68943;DHT22;60852;52.190;4.422;2023-05-25T09:59:10;15.37;74.46
68943;DHT22;60852;52.190;4.422;2023-05-25T10:01:36;15.50;73.81
68943;DHT22;60852;52.190;4.422;2023-05-25T10:04:02;15.44;73.79
68943;DHT22;60852;52.190;4.422;2023-05-25T10:06:27;15.47;74.35
68943;DHT22;60852;52.190;4.422;2023-05-25T10:08:56;15.57;73.63
68943;DHT22;60852;52.190;4.422;2023-05-25T10:11:23;15.61;73.69
68943;DHT22;60852;52.190;4.422;2023-05-25T10:13:53;15.61;73.81
68943;DHT22;60852;52.190;4.422;2023-05-25T10:16:24;15.64;72.59
68943;DHT22;60852;52.190;4.422;2023-05-25T10:21:26;15.49;72.35
68943;DHT22;60852;52.190;4.422;2023-05-25T10:24:00;15.46;72.48
68943;DHT22;60852;52.190;4.422;2023-05-25T10:26:34;15.47;73.23
68943;DHT22;60852;52.190;4.422;2023-05-25T10:29:02;15.65;72.97
68943;DHT22;60852;52.190;4.422;2023-05-25T10:31:30;15.88;72.42
68943;DHT22;60852;52.190;4.422;2023-05-25T10:33:58;16.06;71.16
68943;DHT22;60852;52.190;4.422;2023-05-25T10:36:26;16.04;71.45
68943;DHT22;60852;52.190;4.422;2023-05-25T10:38:51;15.97;70.73
68943;DHT22;60852;52.190;4.422;2023-05-25T10:41:19;16.02;69.90
68943;DHT22;60852;52.190;4.422;2023-05-25T10:43:45;15.93;69.41
68943;DHT22;60852;52.190;4.422;2023-05-25T10:46:12;15.87;69.98
68943;DHT22;60852;52.190;4.422;2023-05-25T10:48:45;15.95;70.60
68943;DHT22;60852;52.190;4.422;2023-05-25T10:51:12;16.15;70.09
68943;DHT22;60852;52.190;4.422;2023-05-25T10:53:43;16.18;70.33
68943;DHT22;60852;52.190;4.422;2023-05-25T10:56:10;16.23;70.84
68943;DHT22;60852;52.190;4.422;2023-05-25T10:58:41;16.11;70.30
68943;DHT22;60852;52.190;4.422;2023-05-25T11:01:13;15.87;70.22
68943;DHT22;60852;52.190;4.422;2023-05-25T11:03:56;15.83;70.77
68943;DHT22;60852;52.190;4.422;2023-05-25T11:09:24;15.77;71.24
68943;DHT22;60852;52.190;4.422;2023-05-25T11:17:08;16.11;70.35
68943;DHT22;60852;52.190;4.422;2023-05-25T11:19:42;16.23;69.88
68943;DHT22;60852;52.190;4.422;2023-05-25T11:22:37;16.21;69.50
68943;DHT22;60852;52.190;4.422;2023-05-25T11:25:36;16.09;68.96
68943;DHT22;60852;52.190;4.422;2023-05-25T11:28:06;15.77;67.35
68943;DHT22;60852;52.190;4.422;2023-05-25T11:30:33;15.60;65.99
68943;DHT22;60852;52.190;4.422;2023-05-25T11:33:03;15.53;66.17
68943;DHT22;60852;52.190;4.422;2023-05-25T11:35:30;15.64;66.49
68943;DHT22;60852;52.190;4.422;2023-05-25T11:37:58;15.75;65.34
68943;DHT22;60852;52.190;4.422;2023-05-25T11:40:28;15.83;65.57
68943;DHT22;60852;52.190;4.422;2023-05-25T11:42:55;15.95;65.22
68943;DHT22;60852;52.190;4.422;2023-05-25T11:45:21;15.90;64.79
68943;DHT22;60852;52.190;4.422;2023-05-25T11:47:47;15.91;64.77
68943;DHT22;60852;52.190;4.422;2023-05-25T11:50:16;15.90;63.48
68943;DHT22;60852;52.190;4.422;2023-05-25T11:52:41;16.01;63.77
68943;DHT22;60852;52.190;4.422;2023-05-25T11:55:11;16.09;62.03
68943;DHT22;60852;52.190;4.422;2023-05-25T11:57:39;16.08;61.50
68943;DHT22;60852;52.190;4.422;2023-05-25T12:00:06;16.18;61.53
68943;DHT22;60852;52.190;4.422;2023-05-25T12:02:39;16.29;60.75
68943;DHT22;60852;52.190;4.422;2023-05-25T12:05:06;16.67;61.31
68943;DHT22;60852;52.190;4.422;2023-05-25T12:07:33;16.72;59.73
68943;DHT22;60852;52.190;4.422;2023-05-25T12:10:12;16.63;58.57
68943;DHT22;60852;52.190;4.422;2023-05-25T12:15:10;16.80;58.85
68943;DHT22;60852;52.190;4.422;2023-05-25T12:17:42;16.87;58.95
68943;DHT22;60852;52.190;4.422;2023-05-25T12:20:10;17.18;57.08
68943;DHT22;60852;52.190;4.422;2023-05-25T12:22:40;16.94;57.51
68943;DHT22;60852;52.190;4.422;2023-05-25T12:25:08;16.84;57.96
68943;DHT22;60852;52.190;4.422;2023-05-25T12:27:35;16.95;58.04
68943;DHT22;60852;52.190;4.422;2023-05-25T12:30:05;16.95;57.95
68943;DHT22;60852;52.190;4.422;2023-05-25T12:32:32;17.03;58.03
68943;DHT22;60852;52.190;4.422;2023-05-25T12:35:05;17.10;58.62
68943;DHT22;60852;52.190;4.422;2023-05-25T12:37:31;17.00;59.00
68943;DHT22;60852;52.190;4.422;2023-05-25T12:39:57;16.94;58.83
68943;DHT22;60852;52.190;4.422;2023-05-25T12:42:23;16.81;60.05
68943;DHT22;60852;52.190;4.422;2023-05-25T12:44:55;16.67;59.48
68943;DHT22;60852;52.190;4.422;2023-05-25T12:47:23;16.69;58.88
68943;DHT22;60852;52.190;4.422;2023-05-25T12:49:51;16.67;58.17
68943;DHT22;60852;52.190;4.422;2023-05-25T12:57:45;16.56;60.46
68943;DHT22;60852;52.190;4.422;2023-05-25T13:00:25;16.60;60.65
68943;DHT22;60852;52.190;4.422;2023-05-25T13:02:52;16.91;59.62
68943;DHT22;60852;52.190;4.422;2023-05-25T13:05:23;17.01;59.74
68943;DHT22;60852;52.190;4.422;2023-05-25T13:07:50;16.95;59.50
68943;DHT22;60852;52.190;4.422;2023-05-25T13:10:16;16.94;60.11
68943;DHT22;60852;52.190;4.422;2023-05-25T13:12:46;16.88;59.65
68943;DHT22;60852;52.190;4.422;2023-05-25T13:15:17;16.87;59.72
68943;DHT22;60852;52.190;4.422;2023-05-25T13:17:44;16.80;59.56
68943;DHT22;60852;52.190;4.422;2023-05-25T13:20:13;16.64;59.19
68943;DHT22;60852;52.190;4.422;2023-05-25T13:22:43;16.39;60.02
68943;DHT22;60852;52.190;4.422;2023-05-25T13:25:11;16.38;60.08
68943;DHT22;60852;52.190;4.422;2023-05-25T13:27:39;16.35;59.96
68943;DHT22;60852;52.190;4.422;2023-05-25T13:30:06;16.62;59.21
68943;DHT22;60852;52.190;4.422;2023-05-25T13:32:33;16.73;59.13
68943;DHT22;60852;52.190;4.422;2023-05-25T13:34:59;16.72;59.41
68943;DHT22;60852;52.190;4.422;2023-05-25T13:37:25;16.73;58.45
68943;DHT22;60852;52.190;4.422;2023-05-25T13:39:54;16.91;58.97
68943;DHT22;60852;52.190;4.422;2023-05-25T13:42:21;17.21;58.22
68943;DHT22;60852;52.190;4.422;2023-05-25T13:44:46;17.53;55.25
68943;DHT22;60852;52.190;4.422;2023-05-25T13:47:12;17.56;56.12
68943;DHT22;60852;52.190;4.422;2023-05-25T13:49:37;17.32;57.21
68943;DHT22;60852;52.190;4.422;2023-05-25T13:52:03;17.17;57.42
68943;DHT22;60852;52.190;4.422;2023-05-25T13:54:28;17.43;57.57
68943;DHT22;60852;52.190;4.422;2023-05-25T13:56:54;17.20;56.90
68943;DHT22;60852;52.190;4.422;2023-05-25T13:59:19;17.11;57.56
68943;DHT22;60852;52.190;4.422;2023-05-25T14:01:45;17.30;57.02
68943;DHT22;60852;52.190;4.422;2023-05-25T14:04:10;17.52;56.81
68943;DHT22;60852;52.190;4.422;2023-05-25T14:06:39;17.46;55.40
68943;DHT22;60852;52.190;4.422;2023-05-25T14:09:04;17.24;56.78
68943;DHT22;60852;52.190;4.422;2023-05-25T14:11:30;17.17;57.53
68943;DHT22;60852;52.190;4.422;2023-05-25T14:13:55;16.95;56.11
68943;DHT22;60852;52.190;4.422;2023-05-25T14:16:21;16.90;58.15
68943;DHT22;60852;52.190;4.422;2023-05-25T14:18:46;16.67;57.10
68943;DHT22;60852;52.190;4.422;2023-05-25T14:21:12;16.69;59.91
68943;DHT22;60852;52.190;4.422;2023-05-25T14:23:37;16.67;57.94
68943;DHT22;60852;52.190;4.422;2023-05-25T14:26:03;16.57;59.79
68943;DHT22;60852;52.190;4.422;2023-05-25T14:28:28;16.63;59.82
68943;DHT22;60852;52.190;4.422;2023-05-25T14:30:54;16.66;59.65
68943;DHT22;60852;52.190;4.422;2023-05-25T14:33:20;16.81;59.05
68943;DHT22;60852;52.190;4.422;2023-05-25T14:35:45;16.91;57.58
68943;DHT22;60852;52.190;4.422;2023-05-25T14:38:11;16.64;60.10
68943;DHT22;60852;52.190;4.422;2023-05-25T14:40:36;16.57;60.89
68943;DHT22;60852;52.190;4.422;2023-05-25T14:43:02;16.67;60.37
68943;DHT22;60852;52.190;4.422;2023-05-25T14:45:27;16.60;60.55
68943;DHT22;60852;52.190;4.422;2023-05-25T14:47:53;16.76;60.35
68943;DHT22;60852;52.190;4.422;2023-05-25T14:50:18;16.79;60.36
68943;DHT22;60852;52.190;4.422;2023-05-25T14:52:44;16.53;60.90
68943;DHT22;60852;52.190;4.422;2023-05-25T14:55:10;16.56;60.95
68943;DHT22;60852;52.190;4.422;2023-05-25T14:57:36;16.39;60.54
68943;DHT22;60852;52.190;4.422;2023-05-25T15:00:02;16.46;61.11
68943;DHT22;60852;52.190;4.422;2023-05-25T15:02:27;16.57;60.34
68943;DHT22;60852;52.190;4.422;2023-05-25T15:04:53;16.48;61.73
68943;DHT22;60852;52.190;4.422;2023-05-25T15:07:19;16.28;61.12
68943;DHT22;60852;52.190;4.422;2023-05-25T15:09:46;16.18;62.39
68943;DHT22;60852;52.190;4.422;2023-05-25T15:12:12;15.98;63.82
68943;DHT22;60852;52.190;4.422;2023-05-25T15:14:37;15.98;63.17
68943;DHT22;60852;52.190;4.422;2023-05-25T15:17:08;16.02;62.25
68943;DHT22;60852;52.190;4.422;2023-05-25T15:19:33;16.16;63.69
68943;DHT22;60852;52.190;4.422;2023-05-25T15:21:59;16.43;63.67
68943;DHT22;60852;52.190;4.422;2023-05-25T15:24:24;16.63;61.90
68943;DHT22;60852;52.190;4.422;2023-05-25T15:26:50;16.69;61.30
68943;DHT22;60852;52.190;4.422;2023-05-25T15:29:15;16.70;61.56
68943;DHT22;60852;52.190;4.422;2023-05-25T15:31:41;16.36;62.03
68943;DHT22;60852;52.190;4.422;2023-05-25T15:34:06;16.05;62.11
68943;DHT22;60852;52.190;4.422;2023-05-25T15:36:33;16.04;61.80
68943;DHT22;60852;52.190;4.422;2023-05-25T15:38:58;15.97;60.60
68943;DHT22;60852;52.190;4.422;2023-05-25T15:41:24;15.81;63.53
68943;DHT22;60852;52.190;4.422;2023-05-25T15:43:51;15.71;61.07
68943;DHT22;60852;52.190;4.422;2023-05-25T15:46:18;15.80;62.56
68943;DHT22;60852;52.190;4.422;2023-05-25T15:48:44;15.97;61.59